sensor_id;sensor_type;location;lat;lon;timestamp;pressure;altitude;pressure_sealevel;temperature;humidity
13420;BME280;6781;58.440;15.470;2023-06-14T00:02:04;101404.09;;;14.48;83.30
13420;BME280;6781;58.440;15.470;2023-06-14T00:04:34;101306.25;;;14.10;82.76
13420;BME280;6781;58.440;15.470;2023-06-14T00:07:02;101347.75;;;14.13;85.21
13420;BME280;6781;58.440;15.470;2023-06-14T00:09:30;101401.41;;;14.59;83.87
13420;BME280;6781;58.440;15.470;2023-06-14T00:11:57;101401.41;;;14.59;83.42
13420;BME280;6781;58.440;15.470;2023-06-14T00:14:24;101357.94;;;14.16;83.71
13420;BME280;6781;58.440;15.470;2023-06-14T00:16:51;101315.53;;;13.82;84.56
13420;BME280;6781;58.440;15.470;2023-06-14T00:19:23;101437.16;;;14.58;84.49
13420;BME280;6781;58.440;15.470;2023-06-14T00:21:50;101438.22;;;14.56;84.66
13420;BME280;6781;58.440;15.470;2023-06-14T00:24:18;101437.44;;;14.44;85.69
13420;BME280;6781;58.440;15.470;2023-06-14T00:26:47;101321.63;;;13.72;85.87
13420;BME280;6781;58.440;15.470;2023-06-14T00:29:14;101431.75;;;14.39;85.78
13420;BME280;6781;58.440;15.470;2023-06-14T00:31:41;101436.63;;;14.32;86.09
13420;BME280;6781;58.440;15.470;2023-06-14T00:34:08;101326.03;;;13.60;86.50
13420;BME280;6781;58.440;15.470;2023-06-14T00:36:35;101388.59;;;13.92;87.27
13420;BME280;6781;58.440;15.470;2023-06-14T00:39:02;101354.09;;;13.67;87.29
13420;BME280;6781;58.440;15.470;2023-06-14T00:41:30;101429.22;;;14.17;88.09
13420;BME280;6781;58.440;15.470;2023-06-14T00:43:58;101435.50;;;14.14;87.67
13420;BME280;6781;58.440;15.470;2023-06-14T00:46:25;101390.56;;;13.79;89.50
13420;BME280;6781;58.440;15.470;2023-06-14T00:48:53;101453.31;;;13.98;90.79
13420;BME280;6781;58.440;15.470;2023-06-14T00:51:21;101325.50;;;13.23;91.62
13420;BME280;6781;58.440;15.470;2023-06-14T00:53:49;101329.28;;;13.19;91.38
13420;BME280;6781;58.440;15.470;2023-06-14T00:56:16;101432.94;;;13.92;91.56
13420;BME280;6781;58.440;15.470;2023-06-14T00:58:46;101440.31;;;13.87;92.39
13420;BME280;6781;58.440;15.470;2023-06-14T01:01:15;101356.03;;;13.32;92.88
13420;BME280;6781;58.440;15.470;2023-06-14T01:03:42;101368.59;;;13.27;93.11
13420;BME280;6781;58.440;15.470;2023-06-14T01:06:16;101303.94;;;12.87;94.02
13420;BME280;6781;58.440;15.470;2023-06-14T01:09:01;101439.88;;;13.71;93.48
13420;BME280;6781;58.440;15.470;2023-06-14T01:11:35;101357.66;;;13.11;92.69
13420;BME280;6781;58.440;15.470;2023-06-14T01:14:03;101437.53;;;13.67;93.19
13420;BME280;6781;58.440;15.470;2023-06-14T01:16:34;101446.06;;;13.58;94.76
13420;BME280;6781;58.440;15.470;2023-06-14T01:19:05;101441.09;;;13.55;94.75
13420;BME280;6781;58.440;15.470;2023-06-14T01:21:32;101446.06;;;13.47;95.26
13420;BME280;6781;58.440;15.470;2023-06-14T01:24:08;101390.81;;;13.09;96.71
13420;BME280;6781;58.440;15.470;2023-06-14T01:26:37;101333.50;;;12.64;96.39
13420;BME280;6781;58.440;15.470;2023-06-14T01:29:12;101425.78;;;13.17;96.99
13420;BME280;6781;58.440;15.470;2023-06-14T01:31:43;101428.47;;;13.04;98.31
13420;BME280;6781;58.440;15.470;2023-06-14T01:34:11;101305.03;;;12.27;98.71
13420;BME280;6781;58.440;15.470;2023-06-14T01:36:41;101450.78;;;13.20;97.43
13420;BME280;6781;58.440;15.470;2023-06-14T01:39:10;101425.63;;;13.08;97.91
13420;BME280;6781;58.440;15.470;2023-06-14T01:41:39;101390.19;;;12.83;98.17
13420;BME280;6781;58.440;15.470;2023-06-14T01:44:07;101450.25;;;13.15;97.50
13420;BME280;6781;58.440;15.470;2023-06-14T01:46:36;101447.88;;;13.12;98.31
13420;BME280;6781;58.440;15.470;2023-06-14T01:49:03;101379.03;;;12.69;97.56
13420;BME280;6781;58.440;15.470;2023-06-14T01:51:30;101367.31;;;12.64;96.41
13420;BME280;6781;58.440;15.470;2023-06-14T01:53:58;101456.41;;;13.14;95.99
13420;BME280;6781;58.440;15.470;2023-06-14T01:56:27;101345.88;;;12.49;96.02
13420;BME280;6781;58.440;15.470;2023-06-14T01:58:54;101445.81;;;13.17;95.16
13420;BME280;6781;58.440;15.470;2023-06-14T02:01:21;101399.56;;;12.85;95.23
13420;BME280;6781;58.440;15.470;2023-06-14T02:03:48;101451.91;;;13.16;94.68
13420;BME280;6781;58.440;15.470;2023-06-14T02:08:52;101435.91;;;12.98;96.50
13420;BME280;6781;58.440;15.470;2023-06-14T02:11:19;101374.38;;;12.51;97.06
13420;BME280;6781;58.440;15.470;2023-06-14T02:13:47;101420.09;;;12.66;97.18
13420;BME280;6781;58.440;15.470;2023-06-14T02:16:14;101438.69;;;12.73;100.00
13420;BME280;6781;58.440;15.470;2023-06-14T02:18:42;101419.28;;;12.42;100.00
13420;BME280;6781;58.440;15.470;2023-06-14T02:21:09;101478.13;;;12.79;100.00
13420;BME280;6781;58.440;15.470;2023-06-14T02:23:36;101444.94;;;12.70;100.00
13420;BME280;6781;58.440;15.470;2023-06-14T02:26:03;101319.91;;;11.66;100.00
13420;BME280;6781;58.440;15.470;2023-06-14T02:28:30;101400.06;;;12.20;100.00
13420;BME280;6781;58.440;15.470;2023-06-14T02:30:59;101409.00;;;12.16;100.00
13420;BME280;6781;58.440;15.470;2023-06-14T02:33:26;101448.06;;;12.51;100.00
13420;BME280;6781;58.440;15.470;2023-06-14T02:35:53;101397.00;;;12.26;100.00
13420;BME280;6781;58.440;15.470;2023-06-14T02:38:20;101455.53;;;12.56;100.00
13420;BME280;6781;58.440;15.470;2023-06-14T02:40:47;101455.78;;;12.53;100.00
13420;BME280;6781;58.440;15.470;2023-06-14T02:43:14;101465.94;;;12.56;100.00
13420;BME280;6781;58.440;15.470;2023-06-14T02:45:42;101341.06;;;11.86;100.00
13420;BME280;6781;58.440;15.470;2023-06-14T02:48:11;101458.41;;;12.64;100.00
13420;BME280;6781;58.440;15.470;2023-06-14T02:50:38;101459.25;;;12.64;100.00
13420;BME280;6781;58.440;15.470;2023-06-14T02:53:05;101404.41;;;12.44;100.00
13420;BME280;6781;58.440;15.470;2023-06-14T02:55:32;101392.25;;;12.20;100.00
13420;BME280;6781;58.440;15.470;2023-06-14T02:58:04;101456.53;;;12.66;100.00
13420;BME280;6781;58.440;15.470;2023-06-14T03:00:31;101463.16;;;12.70;100.00
13420;BME280;6781;58.440;15.470;2023-06-14T03:02:58;101455.63;;;12.78;100.00
13420;BME280;6781;58.440;15.470;2023-06-14T03:05:28;101450.41;;;12.78;100.00
13420;BME280;6781;58.440;15.470;2023-06-14T03:07:56;101384.03;;;12.37;100.00
13420;BME280;6781;58.440;15.470;2023-06-14T03:10:23;101376.22;;;12.37;100.00
13420;BME280;6781;58.440;15.470;2023-06-14T03:12:54;101369.34;;;12.25;100.00
13420;BME280;6781;58.440;15.470;2023-06-14T03:15:21;101495.53;;;12.90;100.00
13420;BME280;6781;58.440;15.470;2023-06-14T03:17:50;101479.13;;;13.00;100.00
13420;BME280;6781;58.440;15.470;2023-06-14T03:20:19;101405.31;;;12.66;100.00
13420;BME280;6781;58.440;15.470;2023-06-14T03:22:47;101349.88;;;12.42;100.00
13420;BME280;6781;58.440;15.470;2023-06-14T03:25:14;101373.94;;;12.57;100.00
13420;BME280;6781;58.440;15.470;2023-06-14T03:27:41;101476.97;;;13.29;100.00
13420;BME280;6781;58.440;15.470;2023-06-14T03:30:09;101478.38;;;13.33;100.00
13420;BME280;6781;58.440;15.470;2023-06-14T03:32:36;101477.22;;;13.38;100.00
13420;BME280;6781;58.440;15.470;2023-06-14T03:35:03;101442.00;;;13.21;100.00
13420;BME280;6781;58.440;15.470;2023-06-14T03:37:31;101385.59;;;12.86;100.00
13420;BME280;6781;58.440;15.470;2023-06-14T03:39:59;101320.94;;;12.58;100.00
13420;BME280;6781;58.440;15.470;2023-06-14T03:42:26;101473.78;;;13.48;100.00
13420;BME280;6781;58.440;15.470;2023-06-14T03:44:53;101389.75;;;13.00;100.00
13420;BME280;6781;58.440;15.470;2023-06-14T03:47:22;101382.53;;;13.03;100.00
13420;BME280;6781;58.440;15.470;2023-06-14T03:49:49;101427.34;;;13.31;100.00
13420;BME280;6781;58.440;15.470;2023-06-14T03:52:16;101388.69;;;13.02;100.00
13420;BME280;6781;58.440;15.470;2023-06-14T03:54:43;101443.81;;;13.43;100.00
13420;BME280;6781;58.440;15.470;2023-06-14T03:57:15;101298.91;;;12.39;100.00
13420;BME280;6781;58.440;15.470;2023-06-14T03:59:52;101297.88;;;12.64;100.00
13420;BME280;6781;58.440;15.470;2023-06-14T04:02:19;101484.91;;;13.73;100.00
13420;BME280;6781;58.440;15.470;2023-06-14T04:04:48;101431.72;;;13.30;100.00
13420;BME280;6781;58.440;15.470;2023-06-14T04:07:15;101468.22;;;13.75;100.00
13420;BME280;6781;58.440;15.470;2023-06-14T04:09:45;101489.41;;;13.82;100.00
13420;BME280;6781;58.440;15.470;2023-06-14T04:12:13;101374.72;;;13.15;100.00
13420;BME280;6781;58.440;15.470;2023-06-14T04:14:41;101483.56;;;13.89;100.00
13420;BME280;6781;58.440;15.470;2023-06-14T04:17:08;101456.13;;;13.74;100.00
13420;BME280;6781;58.440;15.470;2023-06-14T04:19:35;101441.19;;;13.65;100.00
13420;BME280;6781;58.440;15.470;2023-06-14T04:22:02;101446.66;;;13.62;100.00
13420;BME280;6781;58.440;15.470;2023-06-14T04:24:29;101373.81;;;13.27;100.00
13420;BME280;6781;58.440;15.470;2023-06-14T04:26:58;101487.94;;;14.00;100.00
13420;BME280;6781;58.440;15.470;2023-06-14T04:29:28;101468.88;;;13.88;100.00
13420;BME280;6781;58.440;15.470;2023-06-14T04:31:55;101480.34;;;14.08;100.00
13420;BME280;6781;58.440;15.470;2023-06-14T04:34:25;101357.94;;;13.30;100.00
13420;BME280;6781;58.440;15.470;2023-06-14T04:36:55;101377.59;;;13.45;100.00
13420;BME280;6781;58.440;15.470;2023-06-14T04:39:23;101468.50;;;14.04;100.00
13420;BME280;6781;58.440;15.470;2023-06-14T04:41:50;101501.91;;;14.21;100.00
13420;BME280;6781;58.440;15.470;2023-06-14T04:44:23;101459.97;;;13.91;100.00
13420;BME280;6781;58.440;15.470;2023-06-14T04:46:57;101469.41;;;14.14;100.00
13420;BME280;6781;58.440;15.470;2023-06-14T04:49:25;101503.28;;;14.48;100.00
13420;BME280;6781;58.440;15.470;2023-06-14T04:51:53;101314.81;;;13.48;100.00
13420;BME280;6781;58.440;15.470;2023-06-14T04:54:22;101492.19;;;14.67;100.00
13420;BME280;6781;58.440;15.470;2023-06-14T04:56:51;101508.44;;;14.70;100.00
13420;BME280;6781;58.440;15.470;2023-06-14T04:59:18;101456.44;;;14.35;100.00
13420;BME280;6781;58.440;15.470;2023-06-14T05:01:45;101498.38;;;14.86;100.00
13420;BME280;6781;58.440;15.470;2023-06-14T05:04:15;101376.06;;;14.18;100.00
13420;BME280;6781;58.440;15.470;2023-06-14T05:06:42;101444.34;;;14.66;100.00
13420;BME280;6781;58.440;15.470;2023-06-14T05:09:10;101468.06;;;14.74;100.00
13420;BME280;6781;58.440;15.470;2023-06-14T05:11:37;101511.09;;;15.12;100.00
13420;BME280;6781;58.440;15.470;2023-06-14T05:14:04;101500.38;;;15.15;100.00
13420;BME280;6781;58.440;15.470;2023-06-14T05:16:31;101454.69;;;14.88;100.00
13420;BME280;6781;58.440;15.470;2023-06-14T05:18:58;101448.63;;;14.88;100.00
13420;BME280;6781;58.440;15.470;2023-06-14T05:21:28;101422.63;;;14.86;100.00
13420;BME280;6781;58.440;15.470;2023-06-14T05:23:55;101477.66;;;15.67;100.00
13420;BME280;6781;58.440;15.470;2023-06-14T05:26:22;101447.22;;;15.66;100.00
13420;BME280;6781;58.440;15.470;2023-06-14T05:28:54;101288.28;;;14.79;100.00
13420;BME280;6781;58.440;15.470;2023-06-14T05:31:22;101473.13;;;16.18;100.00
13420;BME280;6781;58.440;15.470;2023-06-14T05:33:49;101460.16;;;16.17;100.00
13420;BME280;6781;58.440;15.470;2023-06-14T05:36:16;101420.16;;;15.86;100.00
13420;BME280;6781;58.440;15.470;2023-06-14T05:38:45;101424.59;;;16.14;100.00
13420;BME280;6781;58.440;15.470;2023-06-14T05:41:12;101540.19;;;16.88;100.00
13420;BME280;6781;58.440;15.470;2023-06-14T05:43:39;101283.84;;;15.70;100.00
13420;BME280;6781;58.440;15.470;2023-06-14T05:46:06;101378.84;;;16.47;100.00
13420;BME280;6781;58.440;15.470;2023-06-14T05:48:33;101510.75;;;17.61;100.00
13420;BME280;6781;58.440;15.470;2023-06-14T05:51:00;101454.88;;;17.23;100.00
13420;BME280;6781;58.440;15.470;2023-06-14T05:53:29;101296.72;;;16.48;100.00
13420;BME280;6781;58.440;15.470;2023-06-14T05:55:57;101341.03;;;16.79;100.00
13420;BME280;6781;58.440;15.470;2023-06-14T05:58:24;101510.72;;;17.80;100.00
13420;BME280;6781;58.440;15.470;2023-06-14T06:00:54;101310.03;;;16.74;100.00
13420;BME280;6781;58.440;15.470;2023-06-14T06:03:21;101520.03;;;17.92;100.00
13420;BME280;6781;58.440;15.470;2023-06-14T06:05:51;101513.25;;;17.99;100.00
13420;BME280;6781;58.440;15.470;2023-06-14T06:08:20;101456.34;;;17.63;100.00
13420;BME280;6781;58.440;15.470;2023-06-14T06:10:47;101338.63;;;17.32;100.00
13420;BME280;6781;58.440;15.470;2023-06-14T06:13:23;101417.28;;;17.87;100.00
13420;BME280;6781;58.440;15.470;2023-06-14T06:15:52;101253.22;;;17.02;100.00
13420;BME280;6781;58.440;15.470;2023-06-14T06:18:19;101518.53;;;18.62;100.00
13420;BME280;6781;58.440;15.470;2023-06-14T06:20:46;101369.28;;;17.77;100.00
13420;BME280;6781;58.440;15.470;2023-06-14T06:23:13;101498.16;;;18.82;100.00
13420;BME280;6781;58.440;15.470;2023-06-14T06:25:40;101498.00;;;18.83;100.00
13420;BME280;6781;58.440;15.470;2023-06-14T06:28:07;101500.34;;;18.69;100.00
13420;BME280;6781;58.440;15.470;2023-06-14T06:30:40;101503.03;;;18.95;100.00
13420;BME280;6781;58.440;15.470;2023-06-14T06:33:07;101433.97;;;18.49;100.00
13420;BME280;6781;58.440;15.470;2023-06-14T06:35:34;101524.47;;;19.08;100.00
13420;BME280;6781;58.440;15.470;2023-06-14T06:38:03;101506.78;;;19.18;100.00
13420;BME280;6781;58.440;15.470;2023-06-14T06:40:30;101472.81;;;18.99;100.00
13420;BME280;6781;58.440;15.470;2023-06-14T06:42:57;101516.22;;;19.29;100.00
13420;BME280;6781;58.440;15.470;2023-06-14T06:45:24;101493.94;;;19.15;100.00
13420;BME280;6781;58.440;15.470;2023-06-14T06:47:53;101508.88;;;19.40;100.00
13420;BME280;6781;58.440;15.470;2023-06-14T06:50:20;101503.69;;;19.48;100.00
13420;BME280;6781;58.440;15.470;2023-06-14T06:52:48;101445.34;;;19.27;100.00
13420;BME280;6781;58.440;15.470;2023-06-14T06:55:16;101395.84;;;18.89;100.00
13420;BME280;6781;58.440;15.470;2023-06-14T06:57:43;101514.34;;;19.73;100.00
13420;BME280;6781;58.440;15.470;2023-06-14T07:00:11;101511.09;;;19.79;100.00
13420;BME280;6781;58.440;15.470;2023-06-14T07:02:40;101350.41;;;19.04;100.00
13420;BME280;6781;58.440;15.470;2023-06-14T07:05:14;101374.69;;;19.40;100.00
13420;BME280;6781;58.440;15.470;2023-06-14T07:07:41;101494.41;;;20.12;100.00
13420;BME280;6781;58.440;15.470;2023-06-14T07:10:10;101490.59;;;19.99;100.00
13420;BME280;6781;58.440;15.470;2023-06-14T07:12:37;101423.50;;;19.69;100.00
13420;BME280;6781;58.440;15.470;2023-06-14T07:15:06;101473.34;;;20.12;100.00
13420;BME280;6781;58.440;15.470;2023-06-14T07:17:34;101331.34;;;19.61;100.00
13420;BME280;6781;58.440;15.470;2023-06-14T07:20:04;101400.06;;;20.16;100.00
13420;BME280;6781;58.440;15.470;2023-06-14T07:22:43;101510.59;;;21.39;100.00
13420;BME280;6781;58.440;15.470;2023-06-14T07:25:11;101298.00;;;20.02;100.00
13420;BME280;6781;58.440;15.470;2023-06-14T07:27:42;101505.81;;;21.43;100.00
13420;BME280;6781;58.440;15.470;2023-06-14T07:30:09;101410.06;;;21.02;100.00
13420;BME280;6781;58.440;15.470;2023-06-14T07:32:41;101487.34;;;21.82;100.00
13420;BME280;6781;58.440;15.470;2023-06-14T07:35:10;101491.78;;;22.21;100.00
13420;BME280;6781;58.440;15.470;2023-06-14T07:37:37;101404.75;;;21.88;91.94
13420;BME280;6781;58.440;15.470;2023-06-14T07:40:08;101445.88;;;22.74;91.37
13420;BME280;6781;58.440;15.470;2023-06-14T07:42:47;101351.38;;;22.53;83.82
13420;BME280;6781;58.440;15.470;2023-06-14T07:45:24;101325.38;;;22.27;85.48
13420;BME280;6781;58.440;15.470;2023-06-14T07:47:51;101485.75;;;23.84;84.16
13420;BME280;6781;58.440;15.470;2023-06-14T07:50:23;101271.09;;;22.61;82.50
13420;BME280;6781;58.440;15.470;2023-06-14T07:52:57;101336.06;;;23.58;77.38
13420;BME280;6781;58.440;15.470;2023-06-14T07:55:25;101464.72;;;24.61;72.74
13420;BME280;6781;58.440;15.470;2023-06-14T07:57:56;101428.31;;;24.06;72.95
13420;BME280;6781;58.440;15.470;2023-06-14T08:00:23;101381.81;;;24.31;65.36
13420;BME280;6781;58.440;15.470;2023-06-14T08:02:53;101398.13;;;24.56;59.90
13420;BME280;6781;58.440;15.470;2023-06-14T08:05:24;101364.31;;;24.37;58.57
13420;BME280;6781;58.440;15.470;2023-06-14T08:07:51;101441.41;;;24.56;66.35
13420;BME280;6781;58.440;15.470;2023-06-14T08:10:19;101445.09;;;24.83;66.85
13420;BME280;6781;58.440;15.470;2023-06-14T08:12:50;101379.16;;;24.87;67.89
13420;BME280;6781;58.440;15.470;2023-06-14T08:15:17;101274.53;;;24.68;67.29
13420;BME280;6781;58.440;15.470;2023-06-14T08:17:45;101357.50;;;26.18;66.56
13420;BME280;6781;58.440;15.470;2023-06-14T08:20:27;101250.75;;;25.88;60.03
13420;BME280;6781;58.440;15.470;2023-06-14T08:22:55;101395.38;;;26.47;56.48
13420;BME280;6781;58.440;15.470;2023-06-14T08:25:22;101242.72;;;24.81;56.38
13420;BME280;6781;58.440;15.470;2023-06-14T08:27:51;101423.59;;;26.81;57.49
13420;BME280;6781;58.440;15.470;2023-06-14T08:30:18;101355.06;;;25.90;55.99
13420;BME280;6781;58.440;15.470;2023-06-14T08:32:45;101330.09;;;25.91;50.28
13420;BME280;6781;58.440;15.470;2023-06-14T08:35:13;101337.03;;;25.66;46.14
13420;BME280;6781;58.440;15.470;2023-06-14T08:37:40;101413.25;;;27.31;46.46
13420;BME280;6781;58.440;15.470;2023-06-14T08:40:18;101325.84;;;27.01;48.94
13420;BME280;6781;58.440;15.470;2023-06-14T08:42:47;101340.50;;;27.23;47.25
13420;BME280;6781;58.440;15.470;2023-06-14T08:45:18;101415.00;;;27.50;45.22
13420;BME280;6781;58.440;15.470;2023-06-14T08:47:53;101213.53;;;25.82;46.21
13420;BME280;6781;58.440;15.470;2023-06-14T08:50:23;101318.19;;;26.47;45.66
13420;BME280;6781;58.440;15.470;2023-06-14T08:52:56;101421.16;;;26.59;44.93
13420;BME280;6781;58.440;15.470;2023-06-14T08:55:27;101412.75;;;26.30;44.78
13420;BME280;6781;58.440;15.470;2023-06-14T08:57:55;101296.56;;;25.90;46.03
13420;BME280;6781;58.440;15.470;2023-06-14T09:00:35;101384.94;;;26.58;46.99
13420;BME280;6781;58.440;15.470;2023-06-14T09:03:04;101192.13;;;26.28;43.64
13420;BME280;6781;58.440;15.470;2023-06-14T09:05:31;101389.09;;;27.26;42.64
13420;BME280;6781;58.440;15.470;2023-06-14T09:07:58;101404.97;;;26.68;42.28
13420;BME280;6781;58.440;15.470;2023-06-14T09:10:32;101268.69;;;26.39;41.44
13420;BME280;6781;58.440;15.470;2023-06-14T09:13:03;101302.84;;;26.29;41.53
13420;BME280;6781;58.440;15.470;2023-06-14T09:15:30;101418.91;;;26.76;39.86
13420;BME280;6781;58.440;15.470;2023-06-14T09:18:02;101175.50;;;25.75;38.62
13420;BME280;6781;58.440;15.470;2023-06-14T09:20:50;101176.53;;;25.67;39.73
13420;BME280;6781;58.440;15.470;2023-06-14T09:23:36;101379.44;;;27.25;38.16
13420;BME280;6781;58.440;15.470;2023-06-14T09:26:14;101241.47;;;26.37;36.53
13420;BME280;6781;58.440;15.470;2023-06-14T09:28:46;101273.78;;;27.05;38.16
13420;BME280;6781;58.440;15.470;2023-06-14T09:31:16;101237.97;;;27.33;37.97
13420;BME280;6781;58.440;15.470;2023-06-14T09:33:46;101169.53;;;27.27;36.62
13420;BME280;6781;58.440;15.470;2023-06-14T09:36:16;101121.41;;;26.01;36.22
13420;BME280;6781;58.440;15.470;2023-06-14T09:38:52;101358.78;;;27.58;36.17
13420;BME280;6781;58.440;15.470;2023-06-14T09:41:23;101286.72;;;27.02;35.12
13420;BME280;6781;58.440;15.470;2023-06-14T09:43:58;101231.78;;;27.39;35.09
13420;BME280;6781;58.440;15.470;2023-06-14T09:46:26;101347.81;;;28.29;34.98
13420;BME280;6781;58.440;15.470;2023-06-14T09:48:55;101224.41;;;27.66;33.79
13420;BME280;6781;58.440;15.470;2023-06-14T09:51:24;101355.66;;;28.24;34.55
13420;BME280;6781;58.440;15.470;2023-06-14T09:53:58;101333.00;;;28.33;32.63
13420;BME280;6781;58.440;15.470;2023-06-14T09:56:27;101357.03;;;28.51;33.31
13420;BME280;6781;58.440;15.470;2023-06-14T09:58:56;101379.63;;;28.74;33.10
13420;BME280;6781;58.440;15.470;2023-06-14T10:01:24;101332.38;;;29.41;31.85
13420;BME280;6781;58.440;15.470;2023-06-14T10:04:01;101120.13;;;28.59;32.16
13420;BME280;6781;58.440;15.470;2023-06-14T10:06:30;101321.94;;;30.51;30.98
13420;BME280;6781;58.440;15.470;2023-06-14T10:08:59;101341.03;;;30.43;30.99
13420;BME280;6781;58.440;15.470;2023-06-14T10:11:33;101191.69;;;29.28;31.01
13420;BME280;6781;58.440;15.470;2023-06-14T10:14:04;101343.13;;;30.18;30.11
13420;BME280;6781;58.440;15.470;2023-06-14T10:16:36;101258.69;;;29.45;30.66
13420;BME280;6781;58.440;15.470;2023-06-14T10:19:11;101292.19;;;29.59;31.24
13420;BME280;6781;58.440;15.470;2023-06-14T10:21:45;101339.91;;;29.74;32.46
13420;BME280;6781;58.440;15.470;2023-06-14T10:24:19;101343.38;;;30.39;31.66
13420;BME280;6781;58.440;15.470;2023-06-14T10:26:54;101318.94;;;29.59;32.16
13420;BME280;6781;58.440;15.470;2023-06-14T10:29:21;101340.69;;;30.04;32.35
13420;BME280;6781;58.440;15.470;2023-06-14T10:31:49;101280.72;;;29.82;31.71
13420;BME280;6781;58.440;15.470;2023-06-14T10:34:25;101242.31;;;30.23;31.20
13420;BME280;6781;58.440;15.470;2023-06-14T10:37:11;101328.44;;;31.19;31.77
13420;BME280;6781;58.440;15.470;2023-06-14T10:39:39;101262.75;;;30.64;31.81
13420;BME280;6781;58.440;15.470;2023-06-14T10:42:07;101277.59;;;31.57;31.22
13420;BME280;6781;58.440;15.470;2023-06-14T10:44:42;101219.38;;;29.57;31.09
13420;BME280;6781;58.440;15.470;2023-06-14T10:47:13;101291.66;;;30.39;31.39
13420;BME280;6781;58.440;15.470;2023-06-14T10:49:51;101327.88;;;31.17;31.68
13420;BME280;6781;58.440;15.470;2023-06-14T10:52:22;101224.75;;;29.80;30.37
13420;BME280;6781;58.440;15.470;2023-06-14T10:55:05;101273.84;;;29.98;31.26
13420;BME280;6781;58.440;15.470;2023-06-14T10:57:35;101282.63;;;30.80;32.35
13420;BME280;6781;58.440;15.470;2023-06-14T11:00:04;101294.81;;;30.48;31.08
13420;BME280;6781;58.440;15.470;2023-06-14T11:05:54;101334.19;;;29.70;31.62
13420;BME280;6781;58.440;15.470;2023-06-14T11:11:17;101172.06;;;30.44;30.95
13420;BME280;6781;58.440;15.470;2023-06-14T11:13:47;101275.16;;;30.30;31.48
13420;BME280;6781;58.440;15.470;2023-06-14T11:16:15;101302.75;;;30.19;31.78
13420;BME280;6781;58.440;15.470;2023-06-14T11:18:51;101287.38;;;30.26;31.17
13420;BME280;6781;58.440;15.470;2023-06-14T11:21:20;101096.22;;;28.64;31.59
13420;BME280;6781;58.440;15.470;2023-06-14T11:23:50;101282.56;;;30.52;31.45
13420;BME280;6781;58.440;15.470;2023-06-14T11:26:27;101302.81;;;31.56;31.14
13420;BME280;6781;58.440;15.470;2023-06-14T11:28:56;101316.09;;;31.80;31.01
13420;BME280;6781;58.440;15.470;2023-06-14T11:31:24;101287.59;;;31.45;31.59
13420;BME280;6781;58.440;15.470;2023-06-14T11:33:56;101304.38;;;30.95;30.91
13420;BME280;6781;58.440;15.470;2023-06-14T11:36:31;101287.38;;;30.90;29.91
13420;BME280;6781;58.440;15.470;2023-06-14T11:39:01;101245.78;;;30.35;30.55
13420;BME280;6781;58.440;15.470;2023-06-14T11:41:39;101136.56;;;30.37;29.90
13420;BME280;6781;58.440;15.470;2023-06-14T11:44:07;101294.66;;;31.51;28.98
13420;BME280;6781;58.440;15.470;2023-06-14T11:46:39;101174.03;;;31.39;29.52
13420;BME280;6781;58.440;15.470;2023-06-14T11:49:08;101292.59;;;31.25;29.74
13420;BME280;6781;58.440;15.470;2023-06-14T11:51:49;101163.63;;;31.10;29.82
13420;BME280;6781;58.440;15.470;2023-06-14T11:54:18;101207.69;;;31.81;29.17
13420;BME280;6781;58.440;15.470;2023-06-14T11:56:47;101126.63;;;30.50;30.73
13420;BME280;6781;58.440;15.470;2023-06-14T11:59:14;101204.63;;;30.65;30.92
13420;BME280;6781;58.440;15.470;2023-06-14T12:01:47;101078.16;;;30.34;30.64
13420;BME280;6781;58.440;15.470;2023-06-14T12:04:14;101252.19;;;30.86;30.47
13420;BME280;6781;58.440;15.470;2023-06-14T12:06:41;101274.59;;;31.08;30.21
13420;BME280;6781;58.440;15.470;2023-06-14T12:09:10;101279.75;;;31.27;30.70
13420;BME280;6781;58.440;15.470;2023-06-14T12:12:01;101212.63;;;30.36;31.21
13420;BME280;6781;58.440;15.470;2023-06-14T12:14:29;101151.97;;;30.70;30.31
13420;BME280;6781;58.440;15.470;2023-06-14T12:17:09;101191.72;;;31.07;31.21
13420;BME280;6781;58.440;15.470;2023-06-14T12:19:46;101167.50;;;30.85;30.18
13420;BME280;6781;58.440;15.470;2023-06-14T12:22:18;101192.81;;;31.23;30.91
13420;BME280;6781;58.440;15.470;2023-06-14T12:24:46;101276.94;;;31.67;30.63
13420;BME280;6781;58.440;15.470;2023-06-14T12:27:13;101267.75;;;31.46;30.44
13420;BME280;6781;58.440;15.470;2023-06-14T12:29:44;101264.59;;;31.49;31.28
13420;BME280;6781;58.440;15.470;2023-06-14T12:32:11;101045.69;;;29.91;30.56
13420;BME280;6781;58.440;15.470;2023-06-14T12:34:38;101219.53;;;31.68;30.21
13420;BME280;6781;58.440;15.470;2023-06-14T12:37:06;101228.53;;;33.05;29.80
13420;BME280;6781;58.440;15.470;2023-06-14T12:39:33;101214.47;;;33.61;28.08
13420;BME280;6781;58.440;15.470;2023-06-14T12:42:09;101111.97;;;32.62;28.83
13420;BME280;6781;58.440;15.470;2023-06-14T12:44:38;101255.91;;;32.75;29.49
13420;BME280;6781;58.440;15.470;2023-06-14T12:47:06;101196.34;;;32.17;29.13
13420;BME280;6781;58.440;15.470;2023-06-14T12:49:35;101243.66;;;32.62;29.02
13420;BME280;6781;58.440;15.470;2023-06-14T12:52:02;101139.91;;;31.01;28.98
13420;BME280;6781;58.440;15.470;2023-06-14T12:54:32;101172.78;;;31.81;30.10
13420;BME280;6781;58.440;15.470;2023-06-14T12:56:59;101191.66;;;31.86;28.44
13420;BME280;6781;58.440;15.470;2023-06-14T12:59:29;101161.09;;;32.30;29.34
13420;BME280;6781;58.440;15.470;2023-06-14T13:02:09;101231.88;;;33.49;29.27
13420;BME280;6781;58.440;15.470;2023-06-14T13:04:36;101044.47;;;32.26;28.76
13420;BME280;6781;58.440;15.470;2023-06-14T13:07:04;101104.19;;;32.12;29.37